createdAt,value
2023-05-21T00:00:15.782Z,1.29
2023-05-21T00:01:18.548Z,1.21
2023-05-21T00:02:21.346Z,1.29
2023-05-21T00:03:24.230Z,1.32
2023-05-21T00:04:26.875Z,1.60
2023-05-21T00:05:29.809Z,1.35
2023-05-21T00:06:32.616Z,1.25
2023-05-21T00:07:35.715Z,1.11
2023-05-21T00:08:38.569Z,1.29
2023-05-21T00:09:41.450Z,1.34
2023-05-21T00:10:44.223Z,1.40
2023-05-21T00:11:47.090Z,1.24
2023-05-21T00:12:50.379Z,1.36
2023-05-21T00:13:53.044Z,1.33
2023-05-21T00:14:56.018Z,1.34
2023-05-21T00:15:58.919Z,1.32
2023-05-21T00:17:01.772Z,1.12
2023-05-21T00:18:04.809Z,0.98
2023-05-21T00:19:07.583Z,1.13
2023-05-21T00:20:10.492Z,1.08
2023-05-21T00:21:13.474Z,1.12
2023-05-21T00:22:16.463Z,2.36
2023-05-21T00:23:19.548Z,1.52
2023-05-21T00:24:22.199Z,1.03
2023-05-21T00:25:24.976Z,1.15
2023-05-21T00:26:27.643Z,1.23
2023-05-21T00:27:30.319Z,1.16
2023-05-21T00:28:33.184Z,1.02
2023-05-21T00:29:35.956Z,1.19
2023-05-21T00:30:39.040Z,1.20
2023-05-21T00:31:41.772Z,1.12
2023-05-21T00:32:44.710Z,1.03
2023-05-21T00:33:47.362Z,1.16
2023-05-21T00:34:50.329Z,0.95
2023-05-21T00:35:53.207Z,1.16
2023-05-21T00:36:55.877Z,1.21
2023-05-21T00:37:58.852Z,1.14
2023-05-21T00:39:01.830Z,1.33
2023-05-21T00:40:05.019Z,1.36
2023-05-21T00:41:08.199Z,1.19
2023-05-21T00:42:11.781Z,0.98
2023-05-21T00:43:14.761Z,1.06
2023-05-21T00:44:18.043Z,1.08
2023-05-21T00:45:21.030Z,0.96
2023-05-21T00:46:23.766Z,0.89
2023-05-21T00:47:26.981Z,0.85
2023-05-21T00:48:30.665Z,1.28
2023-05-21T00:49:33.850Z,1.36
2023-05-21T00:50:36.826Z,1.19
2023-05-21T00:51:39.804Z,1.59
2023-05-21T00:52:42.676Z,1.09
2023-05-21T00:53:45.654Z,0.97
2023-05-21T00:54:48.732Z,0.99
2023-05-21T00:55:51.712Z,0.78
2023-05-21T00:56:54.488Z,0.85
2023-05-21T00:57:57.358Z,0.78
2023-05-21T00:59:00.146Z,0.97
2023-05-21T01:00:03.217Z,0.94
2023-05-21T01:01:06.220Z,0.80
2023-05-21T01:02:09.106Z,0.78
2023-05-21T01:03:12.218Z,0.76
2023-05-21T01:04:15.221Z,0.98
2023-05-21T01:05:18.302Z,1.10
2023-05-21T01:06:21.271Z,0.94
2023-05-21T01:07:24.156Z,0.72
2023-05-21T01:08:27.123Z,0.89
2023-05-21T01:09:30.212Z,0.85
2023-05-21T01:10:33.189Z,0.75
2023-05-21T01:11:36.277Z,1.15
2023-05-21T01:12:39.140Z,1.03
2023-05-21T01:13:42.133Z,1.41
2023-05-21T01:14:45.208Z,1.18
2023-05-21T01:15:48.382Z,0.76
2023-05-21T01:16:51.266Z,0.83
2023-05-21T01:17:54.375Z,0.81
2023-05-21T01:18:57.379Z,0.72
2023-05-21T01:20:00.298Z,0.81
2023-05-21T01:21:03.271Z,1.08
2023-05-21T01:22:06.133Z,1.58
2023-05-21T01:23:09.011Z,0.79
2023-05-21T01:24:11.984Z,0.62
2023-05-21T01:25:14.763Z,0.75
2023-05-21T01:26:17.942Z,0.79
2023-05-21T01:27:20.918Z,0.85
2023-05-21T01:28:23.897Z,2.15
2023-05-21T01:29:26.769Z,0.84
2023-05-21T01:30:29.649Z,0.72
2023-05-21T01:31:33.133Z,1.61
2023-05-21T01:32:35.916Z,0.88
2023-05-21T01:33:38.678Z,0.72
2023-05-21T01:34:41.659Z,0.72
2023-05-21T01:35:44.527Z,0.77
2023-05-21T01:36:47.198Z,0.64
2023-05-21T01:37:49.979Z,0.59
2023-05-21T01:38:52.742Z,0.62
2023-05-21T01:39:55.516Z,0.72
2023-05-21T01:40:58.190Z,0.74
2023-05-21T01:42:01.070Z,1.66
2023-05-21T01:43:03.630Z,0.67
2023-05-21T01:44:06.503Z,1.25
2023-05-21T01:45:09.075Z,0.98
2023-05-21T01:46:11.857Z,0.83
2023-05-21T01:47:14.833Z,1.15
2023-05-21T01:48:17.593Z,0.52
2023-05-21T01:49:20.163Z,0.89
2023-05-21T01:50:22.834Z,0.50
2023-05-21T01:51:25.504Z,0.65
2023-05-21T01:52:28.177Z,0.61
2023-05-21T01:53:30.846Z,1.04
2023-05-21T01:54:33.722Z,0.63
2023-05-21T01:55:36.649Z,0.61
2023-05-21T01:56:39.468Z,0.50
2023-05-21T01:57:42.446Z,0.53
2023-05-21T01:58:45.220Z,0.58
2023-05-21T01:59:47.997Z,0.62
2023-05-21T02:00:50.768Z,0.73
2023-05-21T02:01:53.593Z,0.43
2023-05-21T02:03:03.216Z,0.66
2023-05-21T02:04:07.691Z,0.58
2023-05-21T02:05:10.662Z,0.60
2023-05-21T02:06:13.429Z,0.57
2023-05-21T02:07:16.406Z,0.58
2023-05-21T02:08:19.401Z,0.52
2023-05-21T02:09:22.251Z,0.50
2023-05-21T02:10:25.136Z,0.60
2023-05-21T02:11:28.123Z,0.60
2023-05-21T02:12:30.899Z,0.64
2023-05-21T02:13:33.655Z,0.62
2023-05-21T02:14:36.326Z,0.60
2023-05-21T02:15:39.099Z,0.57
2023-05-21T02:16:41.820Z,0.44
2023-05-21T02:17:44.494Z,0.55
2023-05-21T02:18:47.241Z,0.54
2023-05-21T02:19:49.985Z,0.45
2023-05-21T02:20:52.692Z,0.65
2023-05-21T02:21:55.427Z,0.59
2023-05-21T02:22:58.300Z,0.63
2023-05-21T02:24:00.974Z,0.46
2023-05-21T02:25:03.638Z,0.62
2023-05-21T02:26:06.312Z,0.61
2023-05-21T02:27:09.081Z,0.44
2023-05-21T02:28:11.859Z,0.67
2023-05-21T02:29:14.734Z,0.49
2023-05-21T02:30:17.402Z,0.37
2023-05-21T02:31:20.378Z,0.62
2023-05-21T02:32:23.262Z,0.70
2023-05-21T02:33:26.023Z,0.83
2023-05-21T02:34:28.930Z,0.78
2023-05-21T02:35:31.567Z,0.54
2023-05-21T02:36:34.241Z,0.51
2023-05-21T02:37:37.008Z,0.43
2023-05-21T02:38:39.791Z,0.42
2023-05-21T02:39:42.352Z,0.47
2023-05-21T02:40:44.917Z,0.53
2023-05-21T02:41:47.593Z,0.56
2023-05-21T02:42:50.262Z,0.48
2023-05-21T02:43:52.945Z,0.49
2023-05-21T02:44:55.800Z,0.48
2023-05-21T02:45:59.248Z,0.56
2023-05-21T02:47:02.055Z,0.52
2023-05-21T02:48:05.104Z,0.52
2023-05-21T02:49:07.812Z,0.58
2023-05-21T02:50:10.902Z,0.67
2023-05-21T02:51:13.671Z,0.51
2023-05-21T02:52:16.230Z,0.57
2023-05-21T02:53:19.130Z,0.55
2023-05-21T02:54:22.076Z,0.68
2023-05-21T02:55:25.368Z,0.78
2023-05-21T02:56:28.139Z,0.65
2023-05-21T02:57:31.120Z,0.72
2023-05-21T02:58:34.097Z,0.47
2023-05-21T02:59:36.871Z,0.55
2023-05-21T03:00:39.741Z,0.58
2023-05-21T03:01:42.848Z,0.89
2023-05-21T03:02:45.760Z,0.55
2023-05-21T03:03:48.735Z,0.51
2023-05-21T03:04:51.819Z,0.62
2023-05-21T03:05:54.740Z,0.72
2023-05-21T03:06:57.603Z,0.71
2023-05-21T03:08:00.575Z,0.68
2023-05-21T03:09:03.463Z,0.64
2023-05-21T03:10:06.447Z,0.62
2023-05-21T03:11:09.306Z,0.96
2023-05-21T03:12:12.283Z,0.72
2023-05-21T03:13:15.196Z,0.92
2023-05-21T03:14:18.134Z,0.68
2023-05-21T03:15:20.804Z,0.60
2023-05-21T03:16:23.834Z,0.67
2023-05-21T03:17:26.700Z,0.71
2023-05-21T03:18:29.527Z,0.62
2023-05-21T03:19:32.418Z,0.66
2023-05-21T03:20:35.384Z,0.71
2023-05-21T03:21:38.464Z,1.01
2023-05-21T03:22:41.548Z,0.52
2023-05-21T03:23:44.515Z,0.62
2023-05-21T03:24:47.290Z,0.70
2023-05-21T03:25:50.068Z,0.61
2023-05-21T03:26:53.248Z,0.53
2023-05-21T03:27:56.052Z,0.42
2023-05-21T03:28:58.693Z,0.42
2023-05-21T03:30:01.364Z,0.51
2023-05-21T03:31:04.132Z,0.33
2023-05-21T03:32:06.989Z,0.62
2023-05-21T03:33:09.820Z,0.61
2023-05-21T03:34:12.544Z,0.59
2023-05-21T03:35:15.224Z,0.62
2023-05-21T03:36:17.986Z,0.73
2023-05-21T03:37:20.557Z,0.79
2023-05-21T03:38:23.444Z,0.73
2023-05-21T03:39:26.533Z,0.72
2023-05-21T03:40:29.388Z,0.69
2023-05-21T03:41:32.374Z,0.64
2023-05-21T03:42:35.448Z,0.59
2023-05-21T03:43:38.319Z,0.64
2023-05-21T03:44:41.396Z,0.98
2023-05-21T03:45:44.787Z,2.14
2023-05-21T03:46:47.884Z,0.60
2023-05-21T03:47:50.902Z,0.51
2023-05-21T03:48:53.818Z,0.84
2023-05-21T03:49:56.799Z,0.68
2023-05-21T03:50:59.786Z,0.73
2023-05-21T03:52:02.768Z,0.70
2023-05-21T03:53:05.636Z,0.82
2023-05-21T03:54:08.397Z,0.92
2023-05-21T03:55:11.377Z,0.68
2023-05-21T03:56:14.355Z,1.01
2023-05-21T03:57:17.131Z,0.63
2023-05-21T03:58:19.801Z,0.79
2023-05-21T03:59:22.671Z,1.74
2023-05-21T04:00:27.514Z,1.01
2023-05-21T04:01:30.360Z,0.64
2023-05-21T04:02:33.410Z,0.87
2023-05-21T04:03:39.274Z,0.70
2023-05-21T04:04:40.984Z,0.64
2023-05-21T04:05:43.818Z,0.81
2023-05-21T04:06:46.886Z,1.15
2023-05-21T04:07:49.873Z,0.78
2023-05-21T04:08:52.944Z,1.31
2023-05-21T04:09:55.822Z,0.98
2023-05-21T04:10:58.690Z,1.02
2023-05-21T04:12:01.671Z,0.68
2023-05-21T04:13:04.546Z,0.58
2023-05-21T04:14:07.633Z,0.70
2023-05-21T04:15:10.510Z,0.92
2023-05-21T04:16:13.328Z,0.66
2023-05-21T04:17:16.552Z,0.81
2023-05-21T04:18:19.432Z,0.79
2023-05-21T04:19:22.563Z,0.71
2023-05-21T04:20:25.389Z,0.59
2023-05-21T04:21:28.065Z,0.72
2023-05-21T04:22:31.045Z,0.61
2023-05-21T04:23:34.005Z,0.69
2023-05-21T04:24:37.091Z,0.68
2023-05-21T04:25:39.856Z,0.74
2023-05-21T04:26:42.635Z,0.76
2023-05-21T04:27:45.726Z,0.58
2023-05-21T04:28:48.586Z,0.75
2023-05-21T04:29:51.572Z,0.56
2023-05-21T04:30:54.458Z,0.68
2023-05-21T04:31:57.319Z,0.52
2023-05-21T04:33:00.305Z,0.58
2023-05-21T04:34:03.171Z,0.47
2023-05-21T04:35:06.140Z,0.65
2023-05-21T04:36:09.946Z,0.75
2023-05-21T04:37:15.784Z,0.52
2023-05-21T04:38:18.655Z,0.59
2023-05-21T04:39:24.394Z,0.67
2023-05-21T04:40:27.583Z,0.50
2023-05-21T04:41:30.247Z,0.50
2023-05-21T04:42:33.009Z,0.49
2023-05-21T04:43:35.696Z,0.50
2023-05-21T04:44:38.370Z,0.47
2023-05-21T04:45:41.338Z,0.88
2023-05-21T04:46:44.156Z,0.55
2023-05-21T04:47:47.140Z,0.50
2023-05-21T04:48:49.758Z,0.52
2023-05-21T04:49:52.654Z,0.55
2023-05-21T04:50:55.604Z,0.61
2023-05-21T04:51:58.588Z,0.50
2023-05-21T04:53:01.496Z,0.48
2023-05-21T04:54:04.437Z,0.58
2023-05-21T04:55:07.734Z,0.77
2023-05-21T04:56:10.806Z,1.24
2023-05-21T04:57:13.581Z,0.70
2023-05-21T04:58:16.352Z,0.52
2023-05-21T04:59:19.147Z,0.48
2023-05-21T05:00:21.897Z,0.52
2023-05-21T05:01:25.567Z,0.73
2023-05-21T05:02:28.580Z,0.50
2023-05-21T05:03:31.474Z,0.47
2023-05-21T05:04:34.128Z,0.58
2023-05-21T05:05:37.342Z,0.57
2023-05-21T05:06:40.583Z,0.66
2023-05-21T05:07:43.443Z,0.60
2023-05-21T05:08:46.362Z,0.51
2023-05-21T05:09:49.011Z,0.48
2023-05-21T05:10:51.867Z,0.45
2023-05-21T05:11:54.786Z,0.73
2023-05-21T05:12:57.621Z,0.58
2023-05-21T05:14:00.490Z,0.55
2023-05-21T05:15:03.387Z,0.43
2023-05-21T05:16:06.272Z,0.52
2023-05-21T05:17:09.529Z,0.56
2023-05-21T05:18:12.302Z,0.59
2023-05-21T05:19:15.337Z,0.64
2023-05-21T05:20:18.256Z,0.67
2023-05-21T05:21:21.234Z,0.52
2023-05-21T05:22:24.331Z,0.53
2023-05-21T05:23:27.189Z,0.62
2023-05-21T05:24:30.159Z,0.42
2023-05-21T05:25:33.134Z,0.62
2023-05-21T05:26:35.925Z,0.67
2023-05-21T05:27:38.890Z,0.78
2023-05-21T05:28:41.871Z,0.52
2023-05-21T05:29:44.748Z,0.81
2023-05-21T05:30:47.829Z,2.43
2023-05-21T05:31:50.612Z,0.98
2023-05-21T05:32:53.805Z,0.52
2023-05-21T05:33:56.764Z,0.55
2023-05-21T05:35:01.540Z,0.50
2023-05-21T05:36:04.143Z,0.52
2023-05-21T05:37:07.137Z,0.65
2023-05-21T05:38:10.218Z,0.53
2023-05-21T05:39:13.178Z,0.65
2023-05-21T05:40:16.152Z,0.58
2023-05-21T05:41:19.032Z,0.47
2023-05-21T05:42:21.597Z,0.35
2023-05-21T05:43:24.509Z,0.52
2023-05-21T05:44:27.142Z,0.50
2023-05-21T05:45:29.810Z,0.44
2023-05-21T05:46:32.783Z,0.50
2023-05-21T05:47:35.401Z,0.40
2023-05-21T05:48:38.436Z,0.45
2023-05-21T05:49:41.208Z,0.70
2023-05-21T05:50:43.770Z,0.66
2023-05-21T05:51:46.563Z,0.55
2023-05-21T05:52:49.116Z,0.58
2023-05-21T05:53:51.777Z,0.49
2023-05-21T05:54:54.559Z,0.55
2023-05-21T05:55:57.561Z,0.57
2023-05-21T05:57:00.330Z,0.58
2023-05-21T05:58:02.976Z,0.58
2023-05-21T05:59:05.978Z,0.60
2023-05-21T06:00:08.824Z,0.60
2023-05-21T06:01:11.691Z,0.58
2023-05-21T06:02:14.390Z,0.61
2023-05-21T06:03:17.212Z,0.53
2023-05-21T06:04:19.821Z,0.42
2023-05-21T06:05:22.599Z,0.50
2023-05-21T06:06:25.375Z,0.53
2023-05-21T06:07:28.030Z,0.47
2023-05-21T06:08:30.710Z,0.50
2023-05-21T06:09:33.265Z,0.58
2023-05-21T06:10:35.829Z,0.67
2023-05-21T06:11:38.596Z,0.50
2023-05-21T06:12:41.380Z,0.52
2023-05-21T06:13:44.350Z,0.59
2023-05-21T06:14:47.544Z,0.70
2023-05-21T06:15:50.668Z,0.67
2023-05-21T06:16:53.492Z,0.51
2023-05-21T06:17:56.434Z,0.55
2023-05-21T06:18:59.276Z,0.52
2023-05-21T06:20:02.009Z,0.53
2023-05-21T06:21:05.197Z,0.65
2023-05-21T06:22:07.767Z,0.62
2023-05-21T06:23:10.624Z,0.71
2023-05-21T06:24:13.510Z,0.58
2023-05-21T06:25:16.691Z,0.67
2023-05-21T06:26:19.453Z,0.64
2023-05-21T06:27:22.343Z,0.72
2023-05-21T06:28:25.303Z,0.70
2023-05-21T06:29:28.188Z,0.69
2023-05-21T06:30:31.053Z,0.67
2023-05-21T06:31:34.141Z,0.65
2023-05-21T06:32:37.093Z,0.65
2023-05-21T06:33:41.060Z,0.58
2023-05-21T06:34:43.898Z,0.69
2023-05-21T06:35:46.976Z,0.70
2023-05-21T06:36:50.764Z,0.72
2023-05-21T06:37:53.549Z,0.67
2023-05-21T06:38:56.325Z,0.54
2023-05-21T06:39:58.986Z,0.55
2023-05-21T06:41:01.758Z,0.61
2023-05-21T06:42:04.524Z,0.65
2023-05-21T06:43:07.296Z,0.78
2023-05-21T06:44:10.075Z,0.68
2023-05-21T06:45:12.845Z,0.62
2023-05-21T06:46:15.640Z,0.76
2023-05-21T06:47:18.294Z,0.72
2023-05-21T06:48:21.276Z,0.72
2023-05-21T06:49:24.064Z,0.61
2023-05-21T06:50:26.708Z,0.70
2023-05-21T06:51:29.892Z,0.72
2023-05-21T06:52:32.787Z,0.77
2023-05-21T06:53:35.647Z,0.70
2023-05-21T06:54:38.519Z,0.68
2023-05-21T06:55:41.494Z,0.68
2023-05-21T06:56:44.580Z,0.91
2023-05-21T06:57:47.240Z,0.88
2023-05-21T06:58:50.213Z,0.76
2023-05-21T06:59:53.215Z,0.87
2023-05-21T07:00:56.306Z,0.78
2023-05-21T07:01:59.179Z,0.86
2023-05-21T07:03:02.176Z,0.80
2023-05-21T07:04:04.900Z,0.78
2023-05-21T07:05:07.872Z,0.78
2023-05-21T07:06:10.770Z,0.76
2023-05-21T07:07:14.032Z,0.84
2023-05-21T07:08:17.014Z,0.97
2023-05-21T07:09:19.801Z,1.19
2023-05-21T07:10:22.753Z,1.25
2023-05-21T07:11:25.530Z,1.29
2023-05-21T07:12:28.728Z,0.96
2023-05-21T07:13:31.692Z,1.10
2023-05-21T07:14:34.986Z,0.95
2023-05-21T07:15:38.210Z,0.81
2023-05-21T07:16:41.166Z,1.05
2023-05-21T07:17:44.247Z,0.81
2023-05-21T07:18:47.164Z,0.74
2023-05-21T07:19:49.858Z,0.98
2023-05-21T07:20:52.842Z,0.98
2023-05-21T07:21:55.702Z,0.79
2023-05-21T07:22:58.997Z,1.13
2023-05-21T07:24:01.874Z,0.98
2023-05-21T07:25:04.776Z,0.95
2023-05-21T07:26:07.827Z,1.08
2023-05-21T07:27:24.608Z,0.98
2023-05-21T07:28:15.515Z,0.97
2023-05-21T07:29:18.601Z,1.09
2023-05-21T07:30:21.366Z,1.10
2023-05-21T07:31:24.373Z,0.96
2023-05-21T07:32:27.245Z,0.88
2023-05-21T07:33:30.199Z,1.12
2023-05-21T07:34:33.085Z,1.11
2023-05-21T07:35:36.257Z,1.00
2023-05-21T07:36:39.643Z,1.26
2023-05-21T07:37:42.638Z,1.18
2023-05-21T07:38:45.937Z,1.08
2023-05-21T07:39:49.103Z,1.26
2023-05-21T07:40:52.063Z,1.16
2023-05-21T07:41:54.841Z,1.22
2023-05-21T07:42:57.407Z,1.15
2023-05-21T07:44:00.211Z,1.04
2023-05-21T07:45:02.961Z,1.47
2023-05-21T07:46:05.519Z,1.46
2023-05-21T07:47:08.290Z,1.22
2023-05-21T07:48:11.077Z,1.11
2023-05-21T07:49:13.942Z,1.19
2023-05-21T07:50:16.508Z,1.16
2023-05-21T07:51:19.377Z,1.18
2023-05-21T07:52:22.619Z,1.34
2023-05-21T07:53:25.434Z,1.50
2023-05-21T07:54:28.518Z,1.32
2023-05-21T07:55:31.494Z,1.35
2023-05-21T07:56:34.478Z,1.43
2023-05-21T07:57:37.146Z,1.18
2023-05-21T07:58:40.118Z,1.12
2023-05-21T07:59:43.198Z,1.31
2023-05-21T08:00:46.183Z,1.50
2023-05-21T08:01:49.044Z,1.51
2023-05-21T08:02:51.939Z,1.49
2023-05-21T08:03:54.985Z,1.38
2023-05-21T08:04:58.371Z,1.30
2023-05-21T08:06:02.086Z,1.48
2023-05-21T08:07:05.069Z,1.52
2023-05-21T08:08:07.942Z,1.54
2023-05-21T08:09:10.913Z,1.40
2023-05-21T08:10:13.709Z,1.33
2023-05-21T08:11:16.948Z,1.56
2023-05-21T08:12:19.918Z,1.61
2023-05-21T08:13:24.957Z,1.63
2023-05-21T08:14:28.032Z,1.79
2023-05-21T08:15:31.241Z,1.58
2023-05-21T08:16:34.477Z,1.45
2023-05-21T08:17:37.614Z,1.40
2023-05-21T08:18:40.753Z,1.58
2023-05-21T08:19:43.634Z,1.17
2023-05-21T08:20:47.118Z,1.55
2023-05-21T08:21:52.742Z,1.60
2023-05-21T08:22:55.017Z,1.56
2023-05-21T08:23:57.994Z,1.52
2023-05-21T08:25:01.393Z,1.52
2023-05-21T08:26:04.476Z,1.67
2023-05-21T08:27:07.722Z,1.52
2023-05-21T08:28:10.820Z,1.50
2023-05-21T08:29:14.018Z,1.63
2023-05-21T08:30:17.292Z,1.72
2023-05-21T08:31:20.690Z,2.02
2023-05-21T08:32:23.891Z,1.82
2023-05-21T08:33:27.358Z,1.75
2023-05-21T08:34:30.653Z,1.86
2023-05-21T08:35:34.026Z,1.58
2023-05-21T08:36:37.098Z,1.88
2023-05-21T08:37:40.183Z,1.81
2023-05-21T08:38:42.952Z,1.73
2023-05-21T08:39:46.030Z,1.78
2023-05-21T08:40:49.213Z,1.89
2023-05-21T08:41:52.205Z,1.72
2023-05-21T08:42:55.063Z,1.94
2023-05-21T08:43:58.054Z,1.77
2023-05-21T08:45:01.029Z,1.82
2023-05-21T08:46:03.971Z,1.93
2023-05-21T08:47:06.877Z,1.82
2023-05-21T08:48:09.848Z,2.10
2023-05-21T08:49:12.622Z,2.08
2023-05-21T08:50:15.697Z,1.78
2023-05-21T08:51:18.776Z,2.35
2023-05-21T08:52:21.854Z,2.25
2023-05-21T08:53:28.661Z,2.31
2023-05-21T08:54:29.045Z,2.47
2023-05-21T08:55:32.120Z,2.20
2023-05-21T08:56:35.203Z,2.75
2023-05-21T08:57:38.380Z,2.36
2023-05-21T08:58:41.456Z,2.63
2023-05-21T08:59:44.335Z,2.48
2023-05-21T09:00:47.414Z,2.31
2023-05-21T09:01:50.353Z,2.58
2023-05-21T09:02:53.204Z,2.30
2023-05-21T09:04:05.054Z,2.35
2023-05-21T09:05:00.167Z,2.16
2023-05-21T09:06:02.926Z,2.61
2023-05-21T09:07:05.683Z,2.43
2023-05-21T09:08:08.559Z,2.70
2023-05-21T09:09:11.433Z,2.62
2023-05-21T09:10:14.317Z,2.72
2023-05-21T09:11:17.078Z,2.92
2023-05-21T09:12:19.850Z,2.73
2023-05-21T09:13:22.752Z,2.52
2023-05-21T09:14:25.533Z,2.44
2023-05-21T09:15:28.384Z,2.48
2023-05-21T09:16:31.381Z,2.16
2023-05-21T09:17:34.301Z,2.35
2023-05-21T09:18:37.200Z,2.40
2023-05-21T09:19:40.026Z,2.16
2023-05-21T09:20:42.860Z,2.28
2023-05-21T09:21:45.622Z,2.66
2023-05-21T09:22:48.696Z,2.25
2023-05-21T09:23:52.199Z,2.52
2023-05-21T09:24:55.163Z,2.82
2023-05-21T09:25:58.249Z,2.59
2023-05-21T09:27:01.230Z,2.21
2023-05-21T09:28:04.203Z,2.66
2023-05-21T09:29:07.211Z,2.41
2023-05-21T09:30:10.060Z,2.35
2023-05-21T09:31:12.958Z,2.27
2023-05-21T09:32:15.697Z,2.27
2023-05-21T09:33:18.471Z,2.33
2023-05-21T09:34:21.241Z,2.33
2023-05-21T09:35:24.128Z,2.32
2023-05-21T09:36:26.895Z,2.13
2023-05-21T09:37:29.762Z,2.30
2023-05-21T09:38:32.436Z,2.27
2023-05-21T09:39:35.921Z,2.11
2023-05-21T09:40:39.168Z,2.19
2023-05-21T09:41:42.188Z,2.40
2023-05-21T09:42:45.468Z,2.18
2023-05-21T09:43:48.553Z,2.05
2023-05-21T09:44:51.841Z,2.11
2023-05-21T09:45:55.057Z,2.52
2023-05-21T09:46:58.432Z,1.88
2023-05-21T09:48:01.471Z,2.14
2023-05-21T09:49:04.454Z,2.14
2023-05-21T09:50:07.767Z,2.09
2023-05-21T09:51:11.120Z,2.17
2023-05-21T09:52:14.210Z,2.16
2023-05-21T09:53:17.180Z,2.14
2023-05-21T09:54:20.265Z,2.22
2023-05-21T09:55:23.657Z,1.86
2023-05-21T09:56:26.636Z,2.24
2023-05-21T09:57:29.708Z,1.97
2023-05-21T09:58:32.692Z,2.25
2023-05-21T09:59:35.778Z,1.88
2023-05-21T10:00:38.946Z,1.88
2023-05-21T10:01:42.361Z,1.84
2023-05-21T10:02:45.365Z,1.89
2023-05-21T10:03:50.569Z,1.75
2023-05-21T10:04:52.910Z,1.92
2023-05-21T10:05:56.289Z,1.74
2023-05-21T10:06:59.573Z,1.94
2023-05-21T10:08:03.206Z,1.68
2023-05-21T10:09:06.306Z,1.90
2023-05-21T10:10:09.629Z,1.81
2023-05-21T10:11:12.916Z,1.61
2023-05-21T10:12:15.897Z,1.62
2023-05-21T10:13:18.771Z,1.68
2023-05-21T10:14:21.961Z,2.06
2023-05-21T10:15:24.935Z,1.72
2023-05-21T10:16:28.318Z,1.82
2023-05-21T10:17:31.489Z,1.81
2023-05-21T10:18:34.487Z,1.95
2023-05-21T10:19:37.549Z,1.95
2023-05-21T10:20:41.140Z,1.95
2023-05-21T10:21:44.219Z,1.93
2023-05-21T10:22:47.216Z,1.83
2023-05-21T10:23:50.379Z,1.66
2023-05-21T10:24:53.151Z,1.55
2023-05-21T10:25:56.027Z,1.79
2023-05-21T10:26:59.106Z,1.98
2023-05-21T10:28:01.874Z,1.81
2023-05-21T10:29:04.553Z,1.59
2023-05-21T10:30:07.427Z,1.64
2023-05-21T10:31:10.319Z,1.90
2023-05-21T10:32:13.302Z,1.54
2023-05-21T10:33:16.113Z,1.72
2023-05-21T10:34:19.025Z,1.66
2023-05-21T10:35:22.409Z,1.90
2023-05-21T10:36:25.507Z,1.98
2023-05-21T10:37:28.469Z,2.18
2023-05-21T10:38:31.648Z,2.23
2023-05-21T10:39:34.826Z,1.98
2023-05-21T10:40:38.162Z,1.98
2023-05-21T10:41:41.420Z,1.62
2023-05-21T10:42:44.275Z,1.87
2023-05-21T10:43:47.351Z,1.75
2023-05-21T10:44:50.231Z,1.77
2023-05-21T10:45:53.233Z,1.72
2023-05-21T10:46:55.973Z,1.72
2023-05-21T10:47:58.895Z,1.67
2023-05-21T10:49:01.639Z,1.60
2023-05-21T10:50:04.609Z,1.81
2023-05-21T10:51:07.583Z,1.83
2023-05-21T10:52:10.247Z,1.43
2023-05-21T10:53:13.122Z,1.75
2023-05-21T10:54:19.116Z,1.97
2023-05-21T10:55:21.849Z,1.49
2023-05-21T10:56:24.613Z,1.46
2023-05-21T10:57:27.502Z,1.62
2023-05-21T10:58:30.575Z,1.53
2023-05-21T10:59:33.238Z,1.47
2023-05-21T11:00:36.166Z,1.63
2023-05-21T11:01:39.188Z,1.80
2023-05-21T11:02:42.132Z,1.70
2023-05-21T11:03:45.302Z,1.59
2023-05-21T11:04:48.232Z,1.53
2023-05-21T11:05:51.323Z,1.45
2023-05-21T11:06:54.485Z,1.58
2023-05-21T11:07:57.658Z,1.50
2023-05-21T11:09:00.772Z,1.55
2023-05-21T11:10:03.727Z,1.48
2023-05-21T11:11:06.731Z,1.48
2023-05-21T11:12:09.896Z,1.45
2023-05-21T11:13:12.867Z,1.61
2023-05-21T11:14:15.861Z,1.44
2023-05-21T11:15:18.816Z,1.31
2023-05-21T11:16:22.105Z,1.48
2023-05-21T11:17:25.038Z,1.73
2023-05-21T11:18:28.358Z,1.59
2023-05-21T11:19:34.059Z,1.54
2023-05-21T11:20:36.221Z,1.41
2023-05-21T11:21:39.443Z,1.55
2023-05-21T11:22:42.626Z,1.62
2023-05-21T11:23:45.807Z,1.50
2023-05-21T11:24:50.874Z,1.44
2023-05-21T11:25:53.809Z,1.51
2023-05-21T11:26:56.990Z,1.41
2023-05-21T11:27:59.866Z,1.38
2023-05-21T11:29:02.654Z,1.33
2023-05-21T11:30:05.724Z,1.24
2023-05-21T11:31:08.422Z,1.28
2023-05-21T11:32:11.270Z,1.55
2023-05-21T11:33:14.388Z,1.23
2023-05-21T11:34:17.216Z,1.27
2023-05-21T11:35:20.002Z,1.39
2023-05-21T11:36:22.771Z,1.47
2023-05-21T11:37:25.532Z,1.34
2023-05-21T11:38:28.613Z,1.37
2023-05-21T11:39:31.593Z,1.42
2023-05-21T11:40:35.143Z,1.21
2023-05-21T11:41:38.258Z,1.36
2023-05-21T11:42:41.550Z,1.15
2023-05-21T11:43:44.730Z,1.21
2023-05-21T11:44:47.920Z,1.16
2023-05-21T11:45:51.198Z,1.43
2023-05-21T11:46:54.314Z,1.39
2023-05-21T11:47:57.301Z,1.05
2023-05-21T11:49:00.432Z,1.21
2023-05-21T11:50:03.611Z,1.27
2023-05-21T11:51:08.543Z,1.28
2023-05-21T11:52:11.522Z,1.29
2023-05-21T11:53:14.491Z,1.06
2023-05-21T11:54:17.569Z,1.15
2023-05-21T11:55:20.546Z,1.47
2023-05-21T11:56:23.420Z,1.28
2023-05-21T11:57:26.089Z,1.05
2023-05-21T11:58:29.066Z,1.28
2023-05-21T11:59:31.841Z,1.45
2023-05-21T12:00:34.971Z,1.03
2023-05-21T12:01:38.121Z,1.37
2023-05-21T12:02:41.663Z,1.28
2023-05-21T12:03:44.523Z,1.12
2023-05-21T12:04:47.659Z,1.42
2023-05-21T12:05:50.770Z,1.20
2023-05-21T12:06:53.703Z,1.23
2023-05-21T12:07:56.895Z,1.38
2023-05-21T12:08:59.771Z,1.38
2023-05-21T12:10:02.753Z,2.06
2023-05-21T12:11:05.505Z,1.64
2023-05-21T12:12:08.382Z,1.68
2023-05-21T12:13:11.153Z,1.60
2023-05-21T12:14:13.968Z,1.54
2023-05-21T12:15:16.806Z,1.45
2023-05-21T12:16:19.611Z,1.52
2023-05-21T12:17:22.453Z,1.36
2023-05-21T12:18:25.231Z,1.25
2023-05-21T12:19:28.177Z,1.30
2023-05-21T12:20:31.174Z,1.20
2023-05-21T12:21:34.157Z,1.20
2023-05-21T12:22:37.444Z,1.35
2023-05-21T12:23:40.419Z,1.48
2023-05-21T12:24:43.190Z,1.29
2023-05-21T12:25:45.957Z,1.22
2023-05-21T12:26:48.730Z,1.19
2023-05-21T12:27:51.718Z,1.19
2023-05-21T12:28:54.478Z,1.28
2023-05-21T12:29:57.250Z,1.45
2023-05-21T12:31:00.123Z,1.38
2023-05-21T12:32:03.096Z,1.14
2023-05-21T12:33:06.165Z,1.35
2023-05-21T12:34:08.958Z,1.22
2023-05-21T12:35:12.084Z,1.31
2023-05-21T12:36:15.117Z,1.30
2023-05-21T12:37:18.093Z,1.18
2023-05-21T12:38:21.699Z,1.26
2023-05-21T12:39:24.665Z,1.18
2023-05-21T12:40:27.638Z,1.27
2023-05-21T12:41:30.611Z,1.28
2023-05-21T12:42:33.595Z,1.29
2023-05-21T12:43:37.077Z,1.33
2023-05-21T12:44:43.031Z,1.36
2023-05-21T12:45:46.143Z,1.37
2023-05-21T12:46:49.095Z,1.26
2023-05-21T12:47:51.990Z,1.16
2023-05-21T12:48:54.729Z,1.25
2023-05-21T12:49:57.527Z,1.25
2023-05-21T12:51:00.276Z,1.33
2023-05-21T12:52:03.051Z,1.23
2023-05-21T12:53:05.825Z,1.33
2023-05-21T12:54:08.696Z,1.23
2023-05-21T12:55:11.576Z,1.23
2023-05-21T12:56:14.346Z,1.17
2023-05-21T12:57:17.019Z,1.50
2023-05-21T12:58:19.677Z,1.63
2023-05-21T12:59:22.556Z,1.55
2023-05-21T13:00:25.320Z,1.61
2023-05-21T13:01:28.168Z,1.57
2023-05-21T13:02:30.981Z,1.57
2023-05-21T13:03:33.822Z,1.52
2023-05-21T13:04:36.631Z,1.38
2023-05-21T13:05:39.499Z,1.47
2023-05-21T13:06:42.163Z,1.39
2023-05-21T13:07:44.938Z,1.48
2023-05-21T13:08:47.729Z,1.60
2023-05-21T13:09:50.587Z,1.67
2023-05-21T13:10:53.457Z,1.57
2023-05-21T13:11:56.233Z,1.67
2023-05-21T13:12:58.952Z,1.52
2023-05-21T13:14:01.774Z,1.30
2023-05-21T13:15:04.553Z,1.67
2023-05-21T13:16:07.360Z,1.64
2023-05-21T13:17:09.992Z,1.72
2023-05-21T13:18:13.148Z,1.58
2023-05-21T13:19:16.130Z,1.48
2023-05-21T13:20:18.922Z,1.33
2023-05-21T13:21:22.103Z,1.45
2023-05-21T13:22:25.386Z,1.62
2023-05-21T13:23:28.471Z,1.38
2023-05-21T13:24:31.541Z,1.40
2023-05-21T13:25:34.643Z,1.38
2023-05-21T13:26:37.600Z,1.37
2023-05-21T13:27:40.601Z,1.38
2023-05-21T13:28:43.665Z,1.52
2023-05-21T13:29:46.639Z,1.29
2023-05-21T13:30:49.818Z,1.28
2023-05-21T13:31:52.796Z,1.40
2023-05-21T13:32:55.830Z,1.43
2023-05-21T13:33:58.954Z,1.65
2023-05-21T13:35:01.830Z,1.27
2023-05-21T13:36:05.013Z,1.17
2023-05-21T13:37:08.191Z,1.37
2023-05-21T13:38:11.168Z,1.71
2023-05-21T13:39:14.357Z,1.68
2023-05-21T13:40:17.266Z,1.36
2023-05-21T13:41:20.407Z,1.65
2023-05-21T13:42:23.283Z,1.49
2023-05-21T13:43:26.263Z,1.75
2023-05-21T13:44:29.336Z,1.52
2023-05-21T13:45:32.110Z,1.54
2023-05-21T13:46:35.429Z,1.42
2023-05-21T13:47:40.251Z,1.66
2023-05-21T13:48:43.089Z,1.54
2023-05-21T13:49:46.083Z,1.49
2023-05-21T13:50:48.746Z,1.52
2023-05-21T13:51:53.751Z,1.49
2023-05-21T13:52:56.645Z,1.51
2023-05-21T13:53:59.630Z,1.52
2023-05-21T13:55:02.201Z,1.40
2023-05-21T13:56:05.573Z,1.35
2023-05-21T13:57:08.850Z,1.42
2023-05-21T13:58:12.249Z,1.51